Time;durP1;ratioP1;P1;durP2;ratioP2;P2;SDS_P1;SDS_P2;PMS_P1;PMS_P2;Temp;Humidity;BMP_temperature;BMP_pressure;BME280_temperature;BME280_humidity;BME280_pressure;Samples;Min_cycle;Max_cycle;Signal;HPM_P1;HPM_P2
2023/11/16 00:01:44;;;;;;;;;;;;;;;;;;5006451;28;20036;-67
2023/11/16 00:04:10;;;;;;;;;;;;;;;;;;5006198;28;19928;-67
2023/11/16 00:06:38;;;;;;;;;;;;;;;;;;4996418;28;19924;-67
2023/11/16 00:09:04;;;;;;;;;;;;;;;;;;5006692;28;19920;-67
2023/11/16 00:11:30;;;;;;;;;;;;;;;;;;4999492;28;19917;-66
2023/11/16 00:13:57;;;;;;;;;;;;;;;;;;5004287;28;19916;-68
2023/11/16 00:16:23;;;;;;;;;;;;;;;;;;5000626;28;19917;-66
2023/11/16 00:18:49;;;;;;;;;;;;;;;;;;5003160;28;20216;-66
2023/11/16 00:21:15;;;;;;;;;;;;;;;;;;4999139;28;19921;-68
2023/11/16 00:23:41;;;;;;;;;;;;;;;;;;5004242;28;19933;-68
2023/11/16 00:26:11;;;;;;;;;;;;;;;;;;5000340;28;20027;-66
2023/11/16 00:28:37;;;;;;;;;;;;;;;;;;5006221;28;20633;-66
2023/11/16 00:31:03;;;;;;;;;;;;;;;;;;5020350;28;19913;-68
2023/11/16 00:33:29;;;;;;;;;;;;;;;;;;5000999;28;20002;-67
2023/11/16 00:35:58;;;;;;;;;;;;;;;;;;5005921;28;19916;-67
2023/11/16 00:38:27;;;;;;;;;;;;;;;;;;4995327;28;19920;-68
2023/11/16 00:40:55;;;;;;;;;;;;;;;;;;5006810;28;20334;-66
2023/11/16 00:43:21;;;;;;;;;;;;;;;;;;5000852;28;20601;-67
2023/11/16 00:45:47;;;;;;;;;;;;;;;;;;5004372;28;19921;-66
2023/11/16 00:48:13;;;;;;;;;;;;;;;;;;5002775;28;20012;-66
2023/11/16 00:50:39;;;;;;;;;;;;;;;;;;5005705;28;20028;-67
2023/11/16 00:53:05;;;;;;;;;;;;;;;;;;5006894;28;19982;-66
2023/11/16 00:55:31;;;;;;;;;;;;;;;;;;4999987;28;19916;-67
2023/11/16 00:57:57;;;;;;;;;;;;;;;;;;5022346;28;19948;-67
2023/11/16 01:00:26;;;;;;;;;;;;;;;;;;5004036;28;19917;-65
2023/11/16 01:02:53;;;;;;;;;;;;;;;;;;5002328;28;19921;-68
2023/11/16 01:05:19;;;;;;;;;;;;;;;;;;5003136;28;19917;-68
2023/11/16 01:07:45;;;;;;;;;;;;;;;;;;5019098;28;19990;-66
2023/11/16 01:10:15;;;;;;;;;;;;;;;;;;5005196;28;20383;-65
2023/11/16 01:12:43;;;;;;;;;;;;;;;;;;5003403;28;20528;-66
2023/11/16 01:15:10;;;;;;;;;;;;;;;;;;5021262;28;20383;-67
2023/11/16 01:17:36;;;;;;;;;;;;;;;;;;5000122;28;19918;-66
2023/11/16 01:20:07;;;;;;;;;;;;;;;;;;5007430;28;19940;-66
2023/11/16 01:22:40;;;;;;;;;;;;;;;;;;5000276;28;19933;-65
2023/11/16 01:25:14;;;;;;;;;;;;;;;;;;5019196;28;19924;-65
2023/11/16 01:27:43;;;;;;;;;;;;;;;;;;5002385;28;19945;-66
2023/11/16 01:30:10;;;;;;;;;;;;;;;;;;5007613;28;19924;-67
2023/11/16 01:32:36;;;;;;;;;;;;;;;;;;4999738;28;20813;-65
2023/11/16 01:35:04;;;;;;;;;;;;;;;;;;5008131;28;19929;-65
2023/11/16 01:37:30;;;;;;;;;;;;;;;;;;5000319;28;19938;-71
2023/11/16 01:39:57;;;;;;;;;;;;;;;;;;5006623;28;19994;-71
2023/11/16 01:42:23;;;;;;;;;;;;;;;;;;5002722;28;20383;-69
2023/11/16 01:44:49;;;;;;;;;;;;;;;;;;5015135;28;20023;-69
2023/11/16 01:47:15;;;;;;;;;;;;;;;;;;5007006;28;19921;-69
2023/11/16 01:49:42;;;;;;;;;;;;;;;;;;5005327;28;19921;-70
2023/11/16 01:52:08;;;;;;;;;;;;;;;;;;5005492;28;20001;-69
2023/11/16 01:54:35;;;;;;;;;;;;;;;;;;5002994;28;21545;-71
2023/11/16 01:57:03;;;;;;;;;;;;;;;;;;5005486;28;20322;-70
2023/11/16 01:59:29;;;;;;;;;;;;;;;;;;5004640;28;20009;-70
2023/11/16 02:01:55;;;;;;;;;;;;;;;;;;5009572;28;20526;-68
2023/11/16 02:04:22;;;;;;;;;;;;;;;;;;5001306;28;19920;-69
2023/11/16 02:06:48;;;;;;;;;;;;;;;;;;5005666;28;20179;-69
2023/11/16 02:09:15;;;;;;;;;;;;;;;;;;5007531;28;20365;-68
2023/11/16 02:11:41;;;;;;;;;;;;;;;;;;5003352;28;19921;-68
2023/11/16 02:14:07;;;;;;;;;;;;;;;;;;5010050;28;20381;-68
2023/11/16 02:16:33;;;;;;;;;;;;;;;;;;5013484;28;19944;-69
2023/11/16 02:18:59;;;;;;;;;;;;;;;;;;5004693;28;20246;-71
2023/11/16 02:21:26;;;;;;;;;;;;;;;;;;4996111;28;19925;-69
2023/11/16 02:23:52;;;;;;;;;;;;;;;;;;5002316;28;20465;-70
2023/11/16 02:26:18;;;;;;;;;;;;;;;;;;5000043;28;19921;-70
2023/11/16 02:28:44;;;;;;;;;;;;;;;;;;4999366;28;19913;-68
2023/11/16 02:31:10;;;;;;;;;;;;;;;;;;4997856;28;19916;-69
2023/11/16 02:33:37;;;;;;;;;;;;;;;;;;5000266;28;20418;-68
2023/11/16 02:36:03;;;;;;;;;;;;;;;;;;5002547;28;20015;-68
2023/11/16 02:38:29;;;;;;;;;;;;;;;;;;4995183;28;19918;-68
2023/11/16 02:40:56;;;;;;;;;;;;;;;;;;4996451;28;19917;-70
2023/11/16 02:43:24;;;;;;;;;;;;;;;;;;4995993;28;19928;-70
2023/11/16 02:45:50;;;;;;;;;;;;;;;;;;4997076;28;19917;-70
2023/11/16 02:48:16;;;;;;;;;;;;;;;;;;4999511;28;20202;-69
2023/11/16 02:50:42;;;;;;;;;;;;;;;;;;5004642;28;19984;-69
2023/11/16 02:53:09;;;;;;;;;;;;;;;;;;5003914;28;19929;-69
2023/11/16 02:55:35;;;;;;;;;;;;;;;;;;4999792;28;19921;-70
2023/11/16 02:58:01;;;;;;;;;;;;;;;;;;4997195;28;19917;-69
2023/11/16 03:00:27;;;;;;;;;;;;;;;;;;4996816;28;19928;-70
2023/11/16 03:02:56;;;;;;;;;;;;;;;;;;5001931;28;19975;-70
2023/11/16 03:05:22;;;;;;;;;;;;;;;;;;4996682;28;19917;-69
2023/11/16 03:07:50;;;;;;;;;;;;;;;;;;4999966;28;20385;-69
2023/11/16 03:10:16;;;;;;;;;;;;;;;;;;5002959;28;19924;-69
2023/11/16 03:12:44;;;;;;;;;;;;;;;;;;5001630;28;19996;-68
2023/11/16 03:15:10;;;;;;;;;;;;;;;;;;5005499;28;20260;-69
2023/11/16 03:17:36;;;;;;;;;;;;;;;;;;5001594;28;20397;-69
2023/11/16 03:20:02;;;;;;;;;;;;;;;;;;5002866;28;19929;-69
2023/11/16 03:22:29;;;;;;;;;;;;;;;;;;4997583;28;19960;-68
2023/11/16 03:24:54;;;;;;;;;;;;;;;;;;4997829;28;19995;-72
2023/11/16 03:27:21;;;;;;;;;;;;;;;;;;4997254;28;20354;-74
2023/11/16 03:29:47;;;;;;;;;;;;;;;;;;4999538;28;19921;-74
2023/11/16 03:32:13;;;;;;;;;;;;;;;;;;5002583;28;20228;-75
2023/11/16 03:34:39;;;;;;;;;;;;;;;;;;5007195;28;20179;-74
2023/11/16 03:37:05;;;;;;;;;;;;;;;;;;5012809;28;20455;-74
2023/11/16 03:39:31;;;;;;;;;;;;;;;;;;5001979;28;20457;-75
2023/11/16 03:41:57;;;;;;;;;;;;;;;;;;5010194;28;19921;-74
2023/11/16 03:44:23;;;;;;;;;;;;;;;;;;5005051;28;19925;-74
2023/11/16 03:46:49;;;;;;;;;;;;;;;;;;5015041;28;19998;-74
2023/11/16 03:49:15;;;;;;;;;;;;;;;;;;5004928;28;19926;-75
2023/11/16 03:51:41;;;;;;;;;;;;;;;;;;5012039;28;19943;-74
2023/11/16 03:54:07;;;;;;;;;;;;;;;;;;5011539;28;20385;-74
2023/11/16 03:56:33;;;;;;;;;;;;;;;;;;5000558;28;19948;-75
2023/11/16 03:58:59;;;;;;;;;;;;;;;;;;5022452;28;19995;-75
2023/11/16 04:01:25;;;;;;;;;;;;;;;;;;5008912;28;19917;-75
2023/11/16 04:03:51;;;;;;;;;;;;;;;;;;5004919;28;20342;-75
2023/11/16 04:06:17;;;;;;;;;;;;;;;;;;5003896;28;19921;-75
2023/11/16 04:08:43;;;;;;;;;;;;;;;;;;5009267;28;20540;-74
2023/11/16 04:11:10;;;;;;;;;;;;;;;;;;5008183;28;19917;-76
2023/11/16 04:13:36;;;;;;;;;;;;;;;;;;5005014;28;20417;-76
2023/11/16 04:16:03;;;;;;;;;;;;;;;;;;5016020;28;20404;-75
2023/11/16 04:18:30;;;;;;;;;;;;;;;;;;5003912;28;19924;-75
2023/11/16 04:20:56;;;;;;;;;;;;;;;;;;5009729;28;20202;-75
2023/11/16 04:23:22;;;;;;;;;;;;;;;;;;5005368;28;20010;-76
2023/11/16 04:25:54;;;;;;;;;;;;;;;;;;5004244;28;20010;-76
2023/11/16 04:28:21;;;;;;;;;;;;;;;;;;5002286;28;19924;-71
2023/11/16 04:30:46;;;;;;;;;;;;;;;;;;5021832;28;20399;-75
2023/11/16 04:33:12;;;;;;;;;;;;;;;;;;5004144;28;20449;-74
2023/11/16 04:35:38;;;;;;;;;;;;;;;;;;5008430;28;19921;-75
2023/11/16 04:38:04;;;;;;;;;;;;;;;;;;5012048;28;19993;-75
2023/11/16 04:40:30;;;;;;;;;;;;;;;;;;5008761;28;20019;-74
2023/11/16 04:42:56;;;;;;;;;;;;;;;;;;5010256;28;19971;-68
2023/11/16 04:45:22;;;;;;;;;;;;;;;;;;5000135;28;20024;-68
2023/11/16 04:47:48;;;;;;;;;;;;;;;;;;5008459;28;19952;-67
2023/11/16 04:50:16;;;;;;;;;;;;;;;;;;5004349;28;19917;-68
2023/11/16 04:52:42;;;;;;;;;;;;;;;;;;5007724;28;20237;-67
2023/11/16 04:55:08;;;;;;;;;;;;;;;;;;5008992;28;20406;-68
2023/11/16 04:57:34;;;;;;;;;;;;;;;;;;5007963;28;20370;-66
2023/11/16 05:00:00;;;;;;;;;;;;;;;;;;5027534;28;20406;-66
2023/11/16 05:02:27;;;;;;;;;;;;;;;;;;5007261;28;19986;-66
2023/11/16 05:04:54;;;;;;;;;;;;;;;;;;5008796;28;19928;-67
2023/11/16 05:07:19;;;;;;;;;;;;;;;;;;5006574;28;20003;-67
2023/11/16 05:09:45;;;;;;;;;;;;;;;;;;5009134;28;19928;-67
2023/11/16 05:12:11;;;;;;;;;;;;;;;;;;5009826;28;20017;-66
2023/11/16 05:14:37;;;;;;;;;;;;;;;;;;5004883;28;19917;-67
2023/11/16 05:17:03;;;;;;;;;;;;;;;;;;5006963;28;19917;-67
2023/11/16 05:19:29;;;;;;;;;;;;;;;;;;5015497;28;20343;-66
2023/11/16 05:21:55;;;;;;;;;;;;;;;;;;5002402;28;19925;-77
2023/11/16 05:24:21;;;;;;;;;;;;;;;;;;5004360;28;19932;-76
2023/11/16 05:26:47;;;;;;;;;;;;;;;;;;5021773;28;20244;-75
2023/11/16 05:29:13;;;;;;;;;;;;;;;;;;5008652;28;19921;-78
2023/11/16 05:31:39;;;;;;;;;;;;;;;;;;5010008;28;20532;-76
2023/11/16 05:34:07;;;;;;;;;;;;;;;;;;5009617;28;20003;-75
2023/11/16 05:36:34;;;;;;;;;;;;;;;;;;5002295;28;20338;-76
2023/11/16 05:39:00;;;;;;;;;;;;;;;;;;5011503;28;19917;-77
2023/11/16 05:41:27;;;;;;;;;;;;;;;;;;5003306;28;20573;-75
2023/11/16 05:43:53;;;;;;;;;;;;;;;;;;5021740;28;19925;-75
2023/11/16 05:46:19;;;;;;;;;;;;;;;;;;5005484;28;19917;-73
2023/11/16 05:48:45;;;;;;;;;;;;;;;;;;5006951;28;20094;-76
2023/11/16 05:51:11;;;;;;;;;;;;;;;;;;5009096;28;19980;-75
2023/11/16 05:53:37;;;;;;;;;;;;;;;;;;5006742;28;20902;-74
2023/11/16 05:56:02;;;;;;;;;;;;;;;;;;5010167;28;20464;-73
2023/11/16 05:58:28;;;;;;;;;;;;;;;;;;5003216;28;20286;-76
2023/11/16 06:00:55;;;;;;;;;;;;;;;;;;5003802;28;19930;-76
2023/11/16 06:03:26;;;;;;;;;;;;;;;;;;5001966;28;20410;-76
2023/11/16 06:05:53;;;;;;;;;;;;;;;;;;5009327;28;19916;-78
2023/11/16 06:08:19;;;;;;;;;;;;;;;;;;5003207;28;20104;-76
2023/11/16 06:10:45;;;;;;;;;;;;;;;;;;5010502;28;19943;-76
2023/11/16 06:13:11;;;;;;;;;;;;;;;;;;5007587;28;19918;-76
2023/11/16 06:15:36;;;;;;;;;;;;;;;;;;5004640;28;19924;-74
2023/11/16 06:18:02;;;;;;;;;;;;;;;;;;5008511;28;19913;-77
2023/11/16 06:20:28;;;;;;;;;;;;;;;;;;5001531;28;19921;-76
2023/11/16 06:22:54;;;;;;;;;;;;;;;;;;5014370;28;19990;-77
2023/11/16 06:25:23;;;;;;;;;;;;;;;;;;5004732;28;21996;-71
2023/11/16 06:27:50;;;;;;;;;;;;;;;;;;5004198;28;19918;-71
2023/11/16 06:30:16;;;;;;;;;;;;;;;;;;4998803;28;20489;-70
2023/11/16 06:32:45;;;;;;;;;;;;;;;;;;5002258;28;20069;-72
2023/11/16 06:35:11;;;;;;;;;;;;;;;;;;5003986;28;19947;-72
2023/11/16 06:37:37;;;;;;;;;;;;;;;;;;4999656;28;19967;-73
2023/11/16 06:40:04;;;;;;;;;;;;;;;;;;5003114;28;20023;-74
2023/11/16 06:42:30;;;;;;;;;;;;;;;;;;5018190;28;20518;-74
2023/11/16 06:44:56;;;;;;;;;;;;;;;;;;5006419;28;20036;-75
2023/11/16 06:47:22;;;;;;;;;;;;;;;;;;4999365;28;19917;-76
2023/11/16 06:49:48;;;;;;;;;;;;;;;;;;5003236;28;20315;-71
2023/11/16 06:52:14;;;;;;;;;;;;;;;;;;5006668;28;19968;-71
2023/11/16 06:54:42;;;;;;;;;;;;;;;;;;5006885;28;19917;-70
2023/11/16 06:57:08;;;;;;;;;;;;;;;;;;5007112;28;20198;-71
2023/11/16 06:59:34;;;;;;;;;;;;;;;;;;5017195;28;20010;-71
2023/11/16 07:02:00;;;;;;;;;;;;;;;;;;5018838;28;20704;-72
2023/11/16 07:04:26;;;;;;;;;;;;;;;;;;5005132;28;20374;-73
2023/11/16 07:06:56;;;;;;;;;;;;;;;;;;5008595;28;20041;-72
2023/11/16 07:09:26;;;;;;;;;;;;;;;;;;5005942;28;20436;-71
2023/11/16 07:11:53;;;;;;;;;;;;;;;;;;5009521;28;19917;-73
2023/11/16 07:14:19;;;;;;;;;;;;;;;;;;5006537;28;19968;-74
2023/11/16 07:16:45;;;;;;;;;;;;;;;;;;5003225;28;20295;-72
2023/11/16 07:19:12;;;;;;;;;;;;;;;;;;5008455;28;19913;-74
2023/11/16 07:21:38;;;;;;;;;;;;;;;;;;5004455;28;20304;-74
2023/11/16 07:24:04;;;;;;;;;;;;;;;;;;5000904;28;20406;-74
2023/11/16 07:26:31;;;;;;;;;;;;;;;;;;5016397;28;20401;-73
2023/11/16 07:28:57;;;;;;;;;;;;;;;;;;5004040;28;20463;-74
2023/11/16 07:31:27;;;;;;;;;;;;;;;;;;5001669;28;19917;-74
2023/11/16 07:33:53;;;;;;;;;;;;;;;;;;5007144;28;20042;-74
2023/11/16 07:36:23;;;;;;;;;;;;;;;;;;5025700;28;19975;-76
2023/11/16 07:38:49;;;;;;;;;;;;;;;;;;5017882;28;19967;-76
2023/11/16 07:41:15;;;;;;;;;;;;;;;;;;5008433;28;20034;-77
2023/11/16 07:43:43;;;;;;;;;;;;;;;;;;5020642;28;20055;-75
2023/11/16 07:46:09;;;;;;;;;;;;;;;;;;5013257;28;19983;-75
2023/11/16 07:48:35;;;;;;;;;;;;;;;;;;5021410;28;21737;-76
2023/11/16 07:51:01;;;;;;;;;;;;;;;;;;5010784;28;20566;-73
2023/11/16 07:53:27;;;;;;;;;;;;;;;;;;5004236;28;20308;-71
2023/11/16 07:55:54;;;;;;;;;;;;;;;;;;5011734;28;19983;-72
2023/11/16 07:58:22;;;;;;;;;;;;;;;;;;5003514;28;20192;-74
2023/11/16 08:01:04;;;;;;;;;;;;;;;;;;5010862;28;20382;-72
2023/11/16 08:03:42;;;;;;;;;;;;;;;;;;5000853;28;20007;-75
2023/11/16 08:06:12;;;;;;;;;;;;;;;;;;5012667;28;20022;-77
2023/11/16 08:08:38;;;;;;;;;;;;;;;;;;5025283;28;20346;-71
2023/11/16 08:11:06;;;;;;;;;;;;;;;;;;5015366;28;20028;-69
2023/11/16 08:13:34;;;;;;;;;;;;;;;;;;5006735;28;20321;-70
2023/11/16 08:16:04;;;;;;;;;;;;;;;;;;5012130;28;20037;-66
2023/11/16 08:18:30;;;;;;;;;;;;;;;;;;5005425;28;19925;-67
2023/11/16 08:20:55;;;;;;;;;;;;;;;;;;5011145;28;20098;-68
2023/11/16 08:23:22;;;;;;;;;;;;;;;;;;5023886;28;19932;-67
2023/11/16 08:25:50;;;;;;;;;;;;;;;;;;5025047;28;19921;-66
2023/11/16 08:28:19;;;;;;;;;;;;;;;;;;5025891;28;19917;-72
2023/11/16 08:30:45;;;;;;;;;;;;;;;;;;5025521;28;20288;-73
2023/11/16 08:33:11;;;;;;;;;;;;;;;;;;5010915;28;19917;-74
2023/11/16 08:35:37;;;;;;;;;;;;;;;;;;5006851;28;19924;-74
2023/11/16 08:38:05;;;;;;;;;;;;;;;;;;5003701;28;19917;-74
2023/11/16 08:40:31;;;;;;;;;;;;;;;;;;5004792;28;19917;-73
2023/11/16 08:42:57;;;;;;;;;;;;;;;;;;5007228;28;19924;-73
2023/11/16 08:45:25;;;;;;;;;;;;;;;;;;5003072;28;19921;-72
2023/11/16 08:47:59;;;;;;;;;;;;;;;;;;5006904;28;19960;-74
2023/11/16 08:50:25;;;;;;;;;;;;;;;;;;5001847;28;20354;-73
2023/11/16 08:52:51;;;;;;;;;;;;;;;;;;5006624;28;19948;-74
2023/11/16 08:55:18;;;;;;;;;;;;;;;;;;5006477;28;20038;-73
2023/11/16 08:57:47;;;;;;;;;;;;;;;;;;5009567;28;20598;-74
2023/11/16 09:00:29;;;;;;;;;;;;;;;;;;5011520;28;19921;-74
2023/11/16 09:02:55;;;;;;;;;;;;;;;;;;5003986;28;19917;-74
2023/11/16 09:05:21;;;;;;;;;;;;;;;;;;5001760;28;20366;-73
2023/11/16 09:07:48;;;;;;;;;;;;;;;;;;5006354;28;19917;-72
2023/11/16 09:10:14;;;;;;;;;;;;;;;;;;5008276;28;20290;-73
2023/11/16 09:12:40;;;;;;;;;;;;;;;;;;5004952;28;19921;-71
2023/11/16 09:15:07;;;;;;;;;;;;;;;;;;5009861;28;19916;-71
2023/11/16 09:17:33;;;;;;;;;;;;;;;;;;5002615;28;20193;-71
2023/11/16 09:19:59;;;;;;;;;;;;;;;;;;5010920;28;19937;-72
2023/11/16 09:22:25;;;;;;;;;;;;;;;;;;5003363;28;20456;-71
2023/11/16 09:24:51;;;;;;;;;;;;;;;;;;5008327;28;20272;-72
2023/11/16 09:27:18;;;;;;;;;;;;;;;;;;5000296;28;20410;-72
2023/11/16 09:29:47;;;;;;;;;;;;;;;;;;5010920;28;20425;-73
2023/11/16 09:32:12;;;;;;;;;;;;;;;;;;5007872;28;20004;-72
2023/11/16 09:34:39;;;;;;;;;;;;;;;;;;5004794;28;19924;-72
2023/11/16 09:37:07;;;;;;;;;;;;;;;;;;5012712;28;19959;-73
2023/11/16 09:39:33;;;;;;;;;;;;;;;;;;5003757;28;19917;-73
2023/11/16 09:42:00;;;;;;;;;;;;;;;;;;5008016;28;20019;-71
2023/11/16 09:44:27;;;;;;;;;;;;;;;;;;5006373;28;19921;-72
2023/11/16 09:46:53;;;;;;;;;;;;;;;;;;5010219;28;20058;-74
2023/11/16 09:49:19;;;;;;;;;;;;;;;;;;5007537;28;20506;-72
2023/11/16 09:51:45;;;;;;;;;;;;;;;;;;5003555;28;19917;-72
2023/11/16 09:54:11;;;;;;;;;;;;;;;;;;5004312;28;19983;-72
2023/11/16 09:56:40;;;;;;;;;;;;;;;;;;5002871;28;19921;-73
2023/11/16 09:59:13;;;;;;;;;;;;;;;;;;5003580;28;20012;-72
2023/11/16 10:01:42;;;;;;;;;;;;;;;;;;5003370;28;19925;-72
2023/11/16 10:04:11;;;;;;;;;;;;;;;;;;5012931;28;19928;-73
2023/11/16 10:06:37;;;;;;;;;;;;;;;;;;4998894;28;19923;-71
2023/11/16 10:09:03;;;;;;;;;;;;;;;;;;5009743;28;19995;-73
2023/11/16 10:11:31;;;;;;;;;;;;;;;;;;5005164;28;20244;-73
2023/11/16 10:13:58;;;;;;;;;;;;;;;;;;5008361;28;19917;-72
2023/11/16 10:16:24;;;;;;;;;;;;;;;;;;5006417;28;19963;-71
2023/11/16 10:18:51;;;;;;;;;;;;;;;;;;5015314;28;20364;-72
2023/11/16 10:21:17;;;;;;;;;;;;;;;;;;5010042;28;19925;-72
2023/11/16 10:23:45;;;;;;;;;;;;;;;;;;5008270;28;19999;-74
2023/11/16 10:26:11;;;;;;;;;;;;;;;;;;5006780;28;20282;-73
2023/11/16 10:28:38;;;;;;;;;;;;;;;;;;5005302;28;20189;-74
2023/11/16 10:31:05;;;;;;;;;;;;;;;;;;5012385;28;20027;-74
2023/11/16 10:33:31;;;;;;;;;;;;;;;;;;5009534;28;19935;-73
2023/11/16 10:35:59;;;;;;;;;;;;;;;;;;5003723;28;19953;-74
2023/11/16 10:38:27;;;;;;;;;;;;;;;;;;5016125;28;20661;-73
2023/11/16 10:40:53;;;;;;;;;;;;;;;;;;5021514;28;19948;-73
2023/11/16 10:43:19;;;;;;;;;;;;;;;;;;5002250;28;20043;-74
2023/11/16 10:45:45;;;;;;;;;;;;;;;;;;5000059;28;19921;-73
2023/11/16 10:48:13;;;;;;;;;;;;;;;;;;5005552;28;19917;-71
2023/11/16 10:50:39;;;;;;;;;;;;;;;;;;5008002;28;19921;-72
2023/11/16 10:53:06;;;;;;;;;;;;;;;;;;5007977;28;20066;-73
2023/11/16 10:55:32;;;;;;;;;;;;;;;;;;5003537;28;20428;-73
2023/11/16 10:57:58;;;;;;;;;;;;;;;;;;5004345;28;19917;-73
2023/11/16 11:00:26;;;;;;;;;;;;;;;;;;5007601;28;20441;-74
2023/11/16 11:02:53;;;;;;;;;;;;;;;;;;5003122;28;19917;-73
2023/11/16 11:05:22;;;;;;;;;;;;;;;;;;5008433;28;19924;-73
2023/11/16 11:07:48;;;;;;;;;;;;;;;;;;5007451;28;19943;-73
2023/11/16 11:10:14;;;;;;;;;;;;;;;;;;5005867;28;19928;-72
2023/11/16 11:12:41;;;;;;;;;;;;;;;;;;5016657;28;19917;-72
2023/11/16 11:15:14;;;;;;;;;;;;;;;;;;5016806;28;20198;-72
2023/11/16 11:17:40;;;;;;;;;;;;;;;;;;5020122;28;19975;-74
2023/11/16 11:20:09;;;;;;;;;;;;;;;;;;5005313;28;20198;-72
2023/11/16 11:22:36;;;;;;;;;;;;;;;;;;5004576;28;20205;-73
2023/11/16 11:25:10;;;;;;;;;;;;;;;;;;5003710;28;19998;-73
2023/11/16 11:27:39;;;;;;;;;;;;;;;;;;4999483;28;20687;-73
2023/11/16 11:30:05;;;;;;;;;;;;;;;;;;5007737;28;20372;-73
2023/11/16 11:32:31;;;;;;;;;;;;;;;;;;5001135;28;19924;-72
2023/11/16 11:34:57;;;;;;;;;;;;;;;;;;5001862;28;19917;-72
2023/11/16 11:37:24;;;;;;;;;;;;;;;;;;5004932;28;19917;-74
2023/11/16 11:39:52;;;;;;;;;;;;;;;;;;5003021;28;20291;-72
2023/11/16 11:42:19;;;;;;;;;;;;;;;;;;5004972;28;19917;-72
2023/11/16 11:44:47;;;;;;;;;;;;;;;;;;5000623;28;19995;-70
2023/11/16 11:47:14;;;;;;;;;;;;;;;;;;4999951;28;19925;-73
2023/11/16 11:49:41;;;;;;;;;;;;;;;;;;5005813;28;19918;-72
2023/11/16 11:52:07;;;;;;;;;;;;;;;;;;5003477;28;19978;-73
2023/11/16 11:54:32;;;;;;;;;;;;;;;;;;5021360;28;19977;-73
2023/11/16 11:56:59;;;;;;;;;;;;;;;;;;5011751;28;19917;-74
2023/11/16 11:59:25;;;;;;;;;;;;;;;;;;5010059;28;19928;-73
2023/11/16 12:01:51;;;;;;;;;;;;;;;;;;5021556;28;19961;-72
2023/11/16 12:04:17;;;;;;;;;;;;;;;;;;5010174;28;19921;-72
2023/11/16 12:06:43;;;;;;;;;;;;;;;;;;5024519;28;19971;-73
2023/11/16 12:09:09;;;;;;;;;;;;;;;;;;5008943;28;19921;-74
2023/11/16 12:11:35;;;;;;;;;;;;;;;;;;5005446;28;20721;-73
2023/11/16 12:14:03;;;;;;;;;;;;;;;;;;5019818;28;20020;-74
2023/11/16 12:16:29;;;;;;;;;;;;;;;;;;5004287;28;19917;-72
2023/11/16 12:18:55;;;;;;;;;;;;;;;;;;5003280;28;19924;-73
2023/11/16 12:21:21;;;;;;;;;;;;;;;;;;5023831;28;19924;-73
2023/11/16 12:23:50;;;;;;;;;;;;;;;;;;5021466;28;19943;-72
2023/11/16 12:26:16;;;;;;;;;;;;;;;;;;5008463;28;19917;-72
2023/11/16 12:28:42;;;;;;;;;;;;;;;;;;5010272;28;19917;-73
2023/11/16 12:31:08;;;;;;;;;;;;;;;;;;5007688;28;19917;-72
2023/11/16 12:33:34;;;;;;;;;;;;;;;;;;5006879;28;19924;-73
2023/11/16 12:36:00;;;;;;;;;;;;;;;;;;5002293;28;19914;-73
2023/11/16 12:38:27;;;;;;;;;;;;;;;;;;5019831;28;19917;-74
2023/11/16 12:40:53;;;;;;;;;;;;;;;;;;5012816;28;20175;-73
2023/11/16 12:43:20;;;;;;;;;;;;;;;;;;5009302;28;19921;-73
2023/11/16 12:45:47;;;;;;;;;;;;;;;;;;5008973;28;20011;-73
2023/11/16 12:48:13;;;;;;;;;;;;;;;;;;5009621;28;20008;-73
2023/11/16 12:50:39;;;;;;;;;;;;;;;;;;5004867;28;20008;-70
2023/11/16 12:53:06;;;;;;;;;;;;;;;;;;5005394;28;19921;-73
2023/11/16 12:55:32;;;;;;;;;;;;;;;;;;5019939;28;20334;-73
2023/11/16 12:57:59;;;;;;;;;;;;;;;;;;5008956;28;20288;-71
2023/11/16 13:00:25;;;;;;;;;;;;;;;;;;5009440;28;20178;-75
2023/11/16 13:02:51;;;;;;;;;;;;;;;;;;5006850;28;20351;-75
2023/11/16 13:05:17;;;;;;;;;;;;;;;;;;4997206;28;19920;-73
2023/11/16 13:07:43;;;;;;;;;;;;;;;;;;5022692;28;19921;-73
2023/11/16 13:10:09;;;;;;;;;;;;;;;;;;5010595;28;19924;-73
2023/11/16 13:12:35;;;;;;;;;;;;;;;;;;5003410;28;21491;-73
2023/11/16 13:15:01;;;;;;;;;;;;;;;;;;5013379;28;20248;-73
2023/11/16 13:17:27;;;;;;;;;;;;;;;;;;5019271;28;20014;-72
2023/11/16 13:19:53;;;;;;;;;;;;;;;;;;5007227;28;19916;-73
2023/11/16 13:22:19;;;;;;;;;;;;;;;;;;5001694;28;19990;-74
2023/11/16 13:24:45;;;;;;;;;;;;;;;;;;5005179;28;19920;-74
2023/11/16 13:27:11;;;;;;;;;;;;;;;;;;5002033;28;19925;-73
2023/11/16 13:29:37;;;;;;;;;;;;;;;;;;5006097;28;20241;-72
2023/11/16 13:32:05;;;;;;;;;;;;;;;;;;5012000;28;19917;-73
2023/11/16 13:34:32;;;;;;;;;;;;;;;;;;4998685;28;19917;-73
2023/11/16 13:36:58;;;;;;;;;;;;;;;;;;5012235;28;20240;-74
2023/11/16 13:39:24;;;;;;;;;;;;;;;;;;5005913;28;19924;-73
2023/11/16 13:41:50;;;;;;;;;;;;;;;;;;5015902;28;19916;-72
2023/11/16 13:44:17;;;;;;;;;;;;;;;;;;5007491;28;20160;-71
2023/11/16 13:46:43;;;;;;;;;;;;;;;;;;5020151;28;19918;-72
2023/11/16 13:49:09;;;;;;;;;;;;;;;;;;5008401;28;19995;-73
2023/11/16 13:51:35;;;;;;;;;;;;;;;;;;5003124;28;21243;-73
2023/11/16 13:54:01;;;;;;;;;;;;;;;;;;5006793;28;19921;-73
2023/11/16 13:56:28;;;;;;;;;;;;;;;;;;5004219;28;19925;-72
2023/11/16 13:58:54;;;;;;;;;;;;;;;;;;5005730;28;19921;-72
2023/11/16 14:01:20;;;;;;;;;;;;;;;;;;5000529;28;19935;-74
2023/11/16 14:03:47;;;;;;;;;;;;;;;;;;5003862;28;19920;-73
2023/11/16 14:06:14;;;;;;;;;;;;;;;;;;5004660;28;20609;-73
2023/11/16 14:08:43;;;;;;;;;;;;;;;;;;5006123;28;19928;-71
2023/11/16 14:11:09;;;;;;;;;;;;;;;;;;5009802;28;19989;-73
2023/11/16 14:13:37;;;;;;;;;;;;;;;;;;5007499;28;20754;-74
2023/11/16 14:16:04;;;;;;;;;;;;;;;;;;4998503;28;20023;-71
2023/11/16 14:18:33;;;;;;;;;;;;;;;;;;5021004;28;19956;-74
2023/11/16 14:21:00;;;;;;;;;;;;;;;;;;5011129;28;20051;-73
2023/11/16 14:23:27;;;;;;;;;;;;;;;;;;5021361;28;20742;-72
2023/11/16 14:25:53;;;;;;;;;;;;;;;;;;5008559;28;20307;-74
2023/11/16 14:28:19;;;;;;;;;;;;;;;;;;4999384;28;19924;-73
2023/11/16 14:30:44;;;;;;;;;;;;;;;;;;5020144;28;20125;-73
2023/11/16 14:33:12;;;;;;;;;;;;;;;;;;5007555;28;19922;-73
2023/11/16 14:35:38;;;;;;;;;;;;;;;;;;5004339;28;19924;-73
2023/11/16 14:38:04;;;;;;;;;;;;;;;;;;5013016;28;19917;-72
2023/11/16 14:40:30;;;;;;;;;;;;;;;;;;5010402;28;19917;-73
2023/11/16 14:42:56;;;;;;;;;;;;;;;;;;5010812;28;20286;-73
2023/11/16 14:45:25;;;;;;;;;;;;;;;;;;5005564;28;19928;-73
2023/11/16 14:47:51;;;;;;;;;;;;;;;;;;5013544;28;19917;-74
2023/11/16 14:50:20;;;;;;;;;;;;;;;;;;5002686;28;20369;-76
2023/11/16 14:52:46;;;;;;;;;;;;;;;;;;5022887;28;19949;-75
2023/11/16 14:55:12;;;;;;;;;;;;;;;;;;5006713;28;19917;-74
2023/11/16 14:57:39;;;;;;;;;;;;;;;;;;5002433;28;19940;-74
2023/11/16 15:00:05;;;;;;;;;;;;;;;;;;5009831;28;21306;-73
2023/11/16 15:02:31;;;;;;;;;;;;;;;;;;5004549;28;19917;-74
2023/11/16 15:04:57;;;;;;;;;;;;;;;;;;5008402;28;20480;-73
2023/11/16 15:07:23;;;;;;;;;;;;;;;;;;5004381;28;19917;-72
2023/11/16 15:09:49;;;;;;;;;;;;;;;;;;5006743;28;19932;-72
2023/11/16 15:12:15;;;;;;;;;;;;;;;;;;5003798;28;19918;-73
2023/11/16 15:14:42;;;;;;;;;;;;;;;;;;5006611;28;20352;-72
2023/11/16 15:17:08;;;;;;;;;;;;;;;;;;5008675;28;20466;-73
2023/11/16 15:19:35;;;;;;;;;;;;;;;;;;5002857;28;19927;-72
2023/11/16 15:22:02;;;;;;;;;;;;;;;;;;5002160;28;19934;-73
2023/11/16 15:24:28;;;;;;;;;;;;;;;;;;5000360;28;19921;-73
2023/11/16 15:26:54;;;;;;;;;;;;;;;;;;5006711;28;20551;-72
2023/11/16 15:29:20;;;;;;;;;;;;;;;;;;5011640;28;20003;-72
2023/11/16 15:31:46;;;;;;;;;;;;;;;;;;5012215;28;19924;-72
2023/11/16 15:34:12;;;;;;;;;;;;;;;;;;5010384;28;19917;-73
2023/11/16 15:36:40;;;;;;;;;;;;;;;;;;5003546;28;20035;-73
2023/11/16 15:39:10;;;;;;;;;;;;;;;;;;5009953;28;19930;-73
2023/11/16 15:41:36;;;;;;;;;;;;;;;;;;5009966;28;19925;-74
2023/11/16 15:44:02;;;;;;;;;;;;;;;;;;5013489;28;20310;-73
2023/11/16 15:46:31;;;;;;;;;;;;;;;;;;5011472;28;20272;-73
2023/11/16 15:48:57;;;;;;;;;;;;;;;;;;5010640;28;19986;-73
2023/11/16 15:51:23;;;;;;;;;;;;;;;;;;5009975;28;20068;-74
2023/11/16 15:53:51;;;;;;;;;;;;;;;;;;5024338;28;20216;-73
2023/11/16 15:56:17;;;;;;;;;;;;;;;;;;5010671;28;20379;-74
2023/11/16 15:58:42;;;;;;;;;;;;;;;;;;5016503;28;20429;-74
2023/11/16 16:01:08;;;;;;;;;;;;;;;;;;5013307;28;19921;-73
2023/11/16 16:03:34;;;;;;;;;;;;;;;;;;5012250;28;20633;-73
2023/11/16 16:06:00;;;;;;;;;;;;;;;;;;5007645;28;20981;-73
2023/11/16 16:08:28;;;;;;;;;;;;;;;;;;5020860;28;20331;-73
2023/11/16 16:10:54;;;;;;;;;;;;;;;;;;5013856;28;19948;-72
2023/11/16 16:13:20;;;;;;;;;;;;;;;;;;5010630;28;19921;-73
2023/11/16 16:15:48;;;;;;;;;;;;;;;;;;5012197;28;19923;-73
2023/11/16 16:18:15;;;;;;;;;;;;;;;;;;5013816;28;20124;-74
2023/11/16 16:20:41;;;;;;;;;;;;;;;;;;5018527;28;20446;-73
2023/11/16 16:23:06;;;;;;;;;;;;;;;;;;5007825;28;20367;-73
2023/11/16 16:25:32;;;;;;;;;;;;;;;;;;5009279;28;19917;-73
2023/11/16 16:27:59;;;;;;;;;;;;;;;;;;5008140;28;19917;-75
2023/11/16 16:30:25;;;;;;;;;;;;;;;;;;5006225;28;19921;-73
2023/11/16 16:32:51;;;;;;;;;;;;;;;;;;5014096;28;20002;-73
2023/11/16 16:35:17;;;;;;;;;;;;;;;;;;5002286;28;20235;-74
2023/11/16 16:37:44;;;;;;;;;;;;;;;;;;5020324;28;19917;-72
2023/11/16 16:40:10;;;;;;;;;;;;;;;;;;5009594;28;20019;-73
2023/11/16 16:42:36;;;;;;;;;;;;;;;;;;5009201;28;19921;-73